Time;durP1;ratioP1;P1;durP2;ratioP2;P2;SDS_P1;SDS_P2;PMS_P1;PMS_P2;Temp;Humidity;BMP_temperature;BMP_pressure;BME280_temperature;BME280_humidity;BME280_pressure;Samples;Min_cycle;Max_cycle;Signal;HPM_P1;HPM_P2
2022/01/15 00:02:19;;;;;;;12.40;4.70;;;;;;;0.92;84.46;97443.61;107648;1268;34218;-73
2022/01/15 00:04:50;;;;;;;9.90;3.80;;;;;;;0.89;84.54;97448.11;107703;1268;37427;-73
2022/01/15 00:07:21;;;;;;;14.90;4.10;;;;;;;0.84;84.33;97447.03;107555;1271;44378;-73
2022/01/15 00:09:53;;;;;;;10.30;3.70;;;;;;;0.84;83.46;97429.29;107695;1268;41568;-73
2022/01/15 00:12:23;;;;;;;10.90;3.90;;;;;;;0.83;83.22;97434.45;107610;1268;39195;-73
2022/01/15 00:14:54;;;;;;;10.80;3.60;;;;;;;0.81;83.33;97435.81;107708;1268;36096;-73
2022/01/15 00:17:46;;;;;;;11.80;3.90;;;;;;;0.76;83.41;97430.99;107753;1269;32529;-73
2022/01/15 00:20:20;;;;;;;8.00;3.60;;;;;;;0.74;83.21;97432.67;107648;1268;37942;-74
2022/01/15 00:22:56;;;;;;;8.70;3.00;;;;;;;0.73;83.56;97428.91;107708;1271;32352;-73
2022/01/15 00:25:28;;;;;;;14.70;4.60;;;;;;;0.71;83.26;97432.46;107853;1268;41283;-73
2022/01/15 00:28:00;;;;;;;12.00;4.70;;;;;;;0.71;83.71;97431.21;107746;1268;42548;-74
2022/01/15 00:30:31;;;;;;;8.10;3.30;;;;;;;0.68;83.56;97434.73;107658;1268;35332;-74
2022/01/15 00:33:02;;;;;;;10.20;2.90;;;;;;;0.64;83.75;97428.81;107648;1268;33756;-74
2022/01/15 00:35:33;;;;;;;14.10;4.40;;;;;;;0.60;83.95;97429.48;107628;1271;34598;-73
2022/01/15 00:38:04;;;;;;;15.30;4.20;;;;;;;0.56;84.14;97423.98;107708;1268;46914;-74
2022/01/15 00:40:35;;;;;;;8.80;4.20;;;;;;;0.55;84.50;97418.59;107696;1268;42261;-74
2022/01/15 00:43:06;;;;;;;11.60;4.30;;;;;;;0.50;84.73;97419.73;107701;1268;35221;-73
2022/01/15 00:45:36;;;;;;;11.20;4.20;;;;;;;0.45;84.59;97426.83;107686;1268;41213;-74
2022/01/15 00:48:10;;;;;;;13.70;5.00;;;;;;;0.40;84.58;97423.81;107686;1268;38891;-74
2022/01/15 00:50:41;;;;;;;7.60;2.70;;;;;;;0.36;84.86;97426.45;107689;1268;34891;-74
2022/01/15 00:53:12;;;;;;;9.50;4.30;;;;;;;0.33;84.70;97434.21;107756;1268;36810;-73
2022/01/15 00:55:43;;;;;;;8.60;4.40;;;;;;;0.30;84.70;97444.07;107649;1271;35766;-74
2022/01/15 00:58:14;;;;;;;11.00;4.40;;;;;;;0.26;84.68;97447.44;107619;1268;41340;-74
2022/01/15 01:00:45;;;;;;;14.90;4.90;;;;;;;0.23;84.40;97450.25;107663;1268;39222;-73
2022/01/15 01:03:16;;;;;;;12.10;4.60;;;;;;;0.19;84.46;97447.66;107643;1271;41463;-74
2022/01/15 01:05:47;;;;;;;8.50;3.80;;;;;;;0.15;84.48;97446.05;107752;1268;37179;-74
2022/01/15 01:08:18;;;;;;;9.10;3.30;;;;;;;0.11;84.53;97447.80;107685;1268;34397;-74
2022/01/15 01:10:56;;;;;;;11.50;3.90;;;;;;;0.07;84.71;97448.98;107723;1268;38594;-74
2022/01/15 01:24:52;;;;;;;6.20;3.40;;;;;;;-0.03;85.13;97465.76;107414;1274;31653;-73
2022/01/15 01:27:27;;;;;;;12.50;4.00;;;;;;;-0.06;85.06;97462.98;107684;1268;35603;-73
2022/01/15 01:30:12;;;;;;;8.80;3.70;;;;;;;-0.08;85.13;97472.50;107791;1268;36179;-73
2022/01/15 01:32:52;;;;;;;11.90;4.30;;;;;;;-0.06;85.12;97472.55;107727;1268;33800;-74
2022/01/15 01:35:39;;;;;;;11.20;4.60;;;;;;;-0.11;85.36;97477.34;107713;1270;48836;-74
2022/01/15 01:38:15;;;;;;;7.70;4.10;;;;;;;-0.15;85.46;97468.75;107697;1270;29806;-74
2022/01/15 01:40:49;;;;;;;5.20;3.40;;;;;;;-0.18;85.79;97467.00;107767;1268;31624;-74
2022/01/15 01:46:30;;;;;;;9.10;3.60;;;;;;;-0.27;85.57;97460.30;107648;1271;43627;-74
2022/01/15 01:49:03;;;;;;;5.10;2.50;;;;;;;-0.31;85.57;97458.84;107726;1268;35242;-74
2022/01/15 01:51:36;;;;;;;6.90;3.90;;;;;;;-0.30;85.78;97463.82;107790;1268;35843;-74
2022/01/15 01:54:09;;;;;;;12.70;4.70;;;;;;;-0.33;85.72;97461.44;107689;1268;40586;-74
2022/01/15 01:56:41;;;;;;;14.10;5.00;;;;;;;-0.34;85.72;97464.99;107694;1268;38324;-73
2022/01/15 01:59:14;;;;;;;9.00;3.90;;;;;;;-0.37;85.80;97461.45;107707;1268;36472;-74
2022/01/15 02:01:45;;;;;;;7.10;3.60;;;;;;;-0.37;85.76;97457.60;107689;1268;41981;-73
2022/01/15 02:04:16;;;;;;;6.80;3.50;;;;;;;-0.34;86.05;97460.59;107674;1268;37913;-74
2022/01/15 02:06:47;;;;;;;7.00;3.70;;;;;;;-0.35;85.97;97449.96;107780;1268;37201;-74
2022/01/15 02:09:21;;;;;;;8.50;3.10;;;;;;;-0.35;86.08;97450.73;107687;1268;40913;-74
2022/01/15 02:11:51;;;;;;;7.00;3.50;;;;;;;-0.39;85.89;97448.73;107570;1271;48989;-74
2022/01/15 02:14:30;;;;;;;10.90;3.30;;;;;;;-0.34;85.63;97438.66;107558;1270;40408;-73
2022/01/15 02:17:01;;;;;;;9.90;4.10;;;;;;;-0.31;85.40;97434.36;107678;1268;42967;-74
2022/01/15 02:19:46;;;;;;;11.30;3.00;;;;;;;-0.34;85.53;97443.88;107736;1268;37315;-74
2022/01/15 02:25:06;;;;;;;9.50;4.30;;;;;;;-0.40;85.61;97447.89;107680;1268;33261;-73
2022/01/15 02:27:36;;;;;;;8.70;3.50;;;;;;;-0.44;85.51;97449.39;107678;1270;40522;-73
2022/01/15 02:30:09;;;;;;;9.50;2.90;;;;;;;-0.49;85.60;97451.36;107767;1268;31943;-74
2022/01/15 02:32:40;;;;;;;9.10;4.30;;;;;;;-0.51;85.62;97446.79;107653;1271;36865;-74
2022/01/15 02:35:15;;;;;;;7.90;3.20;;;;;;;-0.46;86.00;97450.02;107673;1270;34747;-74
2022/01/15 02:37:45;;;;;;;11.70;4.90;;;;;;;-0.48;85.76;97453.34;107760;1268;32237;-73
2022/01/15 02:40:16;;;;;;;13.80;5.50;;;;;;;-0.52;85.79;97451.42;107697;1268;35482;-74
2022/01/15 02:42:49;;;;;;;12.10;4.50;;;;;;;-0.57;85.63;97451.70;107648;1268;37409;-73
2022/01/15 02:45:23;;;;;;;7.20;3.20;;;;;;;-0.62;85.93;97449.73;107741;1268;32873;-74
2022/01/15 02:48:03;;;;;;;9.30;3.20;;;;;;;-0.57;85.80;97453.30;107798;1268;31507;-73
2022/01/15 02:50:34;;;;;;;10.00;4.10;;;;;;;-0.56;85.83;97459.27;107709;1268;36486;-74
2022/01/15 02:53:06;;;;;;;11.30;4.40;;;;;;;-0.62;85.82;97458.30;107649;1268;35962;-74
2022/01/15 02:55:41;;;;;;;11.10;4.30;;;;;;;-0.65;85.66;97460.23;107649;1268;40060;-74
2022/01/15 02:58:14;;;;;;;10.20;4.50;;;;;;;-0.69;85.72;97465.06;107605;1270;39287;-74
2022/01/15 03:00:46;;;;;;;9.70;4.00;;;;;;;-0.72;85.68;97465.26;107570;1270;37065;-74
2022/01/15 03:03:17;;;;;;;10.90;5.40;;;;;;;-0.72;85.68;97466.33;107696;1268;37233;-74
2022/01/15 03:05:48;;;;;;;12.60;5.10;;;;;;;-0.74;85.37;97472.84;107731;1268;33791;-73
2022/01/15 03:08:18;;;;;;;12.90;5.10;;;;;;;-0.77;85.56;97477.98;107705;1268;30660;-74
2022/01/15 03:10:49;;;;;;;14.50;5.40;;;;;;;-0.79;85.64;97483.98;107691;1267;44885;-74
2022/01/15 03:13:20;;;;;;;15.40;5.40;;;;;;;-0.82;85.71;97476.66;107719;1268;35733;-74
2022/01/15 03:15:51;;;;;;;15.30;6.60;;;;;;;-0.85;85.66;97483.74;107721;1268;32538;-74
2022/01/15 03:18:22;;;;;;;17.10;5.40;;;;;;;-0.86;85.72;97482.52;107684;1268;33495;-73
2022/01/15 03:20:53;;;;;;;6.70;3.00;;;;;;;-0.88;85.76;97474.10;107730;1268;34801;-74
2022/01/15 03:23:24;;;;;;;7.00;3.70;;;;;;;-0.93;85.88;97476.02;107694;1270;36241;-73
2022/01/15 03:25:55;;;;;;;10.30;4.70;;;;;;;-0.93;86.06;97475.10;107812;1268;38121;-74
2022/01/15 03:28:25;;;;;;;13.40;5.40;;;;;;;-0.96;86.07;97476.00;107779;1268;36700;-74
2022/01/15 03:30:56;;;;;;;8.60;4.00;;;;;;;-0.97;85.88;97476.15;107777;1268;36243;-74
2022/01/15 03:33:27;;;;;;;10.70;4.30;;;;;;;-0.98;85.87;97468.84;107640;1268;39375;-74
2022/01/15 03:35:58;;;;;;;10.10;4.50;;;;;;;-0.96;86.05;97472.19;107767;1268;44156;-74
2022/01/15 03:38:29;;;;;;;16.70;5.90;;;;;;;-0.94;86.21;97471.13;107724;1268;31987;-75
2022/01/15 03:41:00;;;;;;;13.20;5.60;;;;;;;-0.93;86.06;97472.94;107737;1268;35675;-74
2022/01/15 03:43:30;;;;;;;16.60;5.60;;;;;;;-0.93;86.20;97471.69;107662;1270;44106;-74
2022/01/15 03:46:01;;;;;;;8.60;5.00;;;;;;;-0.93;85.82;97471.86;107678;1268;35404;-74
2022/01/15 03:48:32;;;;;;;9.40;5.00;;;;;;;-0.95;86.17;97476.37;107681;1268;32423;-74
2022/01/15 03:51:04;;;;;;;11.80;6.20;;;;;;;-0.93;86.38;97472.54;107688;1268;39455;-74
2022/01/15 03:53:35;;;;;;;14.10;6.80;;;;;;;-0.92;86.13;97466.90;107699;1268;40091;-73
2022/01/15 03:56:06;;;;;;;10.80;5.00;;;;;;;-0.89;85.95;97458.31;107631;1268;32526;-74
2022/01/15 03:58:37;;;;;;;13.30;5.70;;;;;;;-0.90;85.87;97474.09;107762;1268;35597;-74
2022/01/15 04:01:08;;;;;;;9.60;5.40;;;;;;;-0.94;86.05;97466.05;107679;1268;42858;-73
2022/01/15 04:03:40;;;;;;;12.90;5.70;;;;;;;-0.96;85.87;97467.99;107644;1271;39615;-73
2022/01/15 04:06:11;;;;;;;9.10;5.60;;;;;;;-0.98;85.84;97470.76;107691;1268;33864;-73
2022/01/15 04:08:42;;;;;;;12.80;5.80;;;;;;;-0.99;85.99;97475.00;107645;1270;35587;-74
2022/01/15 04:11:13;;;;;;;10.00;4.90;;;;;;;-1.05;85.99;97478.20;107721;1270;31095;-73
2022/01/15 04:13:44;;;;;;;10.20;5.90;;;;;;;-1.07;86.12;97484.55;107741;1270;32944;-74
2022/01/15 04:16:15;;;;;;;12.90;6.10;;;;;;;-1.09;86.20;97485.24;107709;1268;32511;-73
2022/01/15 04:18:46;;;;;;;20.10;5.60;;;;;;;-1.07;86.19;97485.67;107742;1268;34060;-74
2022/01/15 04:21:17;;;;;;;8.30;4.10;;;;;;;-1.04;85.97;97491.19;107732;1268;37749;-74
2022/01/15 04:23:48;;;;;;;10.80;5.60;;;;;;;-1.06;85.90;97498.48;107735;1266;35953;-73
2022/01/15 04:26:24;;;;;;;9.50;4.60;;;;;;;-1.10;86.03;97498.38;107657;1268;41318;-74
2022/01/15 04:29:01;;;;;;;15.40;6.30;;;;;;;-1.11;85.68;97499.07;107802;1268;33724;-74
2022/01/15 04:31:46;;;;;;;14.40;6.90;;;;;;;-1.14;85.82;97501.27;107669;1269;48053;-74
2022/01/15 04:34:22;;;;;;;13.70;5.90;;;;;;;-1.11;85.70;97493.44;107719;1268;33717;-73
2022/01/15 04:36:57;;;;;;;21.80;6.80;;;;;;;-1.10;85.68;97491.13;107705;1268;41826;-74
2022/01/15 04:39:27;;;;;;;11.80;6.20;;;;;;;-1.12;85.53;97484.41;107812;1268;34455;-74
2022/01/15 04:41:58;;;;;;;10.60;5.30;;;;;;;-1.17;85.41;97485.90;107776;1268;44623;-73
2022/01/15 04:44:29;;;;;;;17.10;6.70;;;;;;;-1.21;85.44;97486.59;107747;1268;33985;-74
2022/01/15 04:47:00;;;;;;;15.00;7.70;;;;;;;-1.22;85.79;97477.86;107646;1268;44257;-75
2022/01/15 04:49:31;;;;;;;19.90;7.80;;;;;;;-1.22;85.54;97484.14;107667;1268;45321;-74
2022/01/15 04:52:02;;;;;;;10.90;5.10;;;;;;;-1.26;85.34;97486.05;107661;1268;38170;-74
2022/01/15 04:54:34;;;;;;;14.50;7.20;;;;;;;-1.22;84.75;97496.82;107759;1268;40452;-73
2022/01/15 04:57:06;;;;;;;19.10;8.30;;;;;;;-1.23;84.80;97496.25;107726;1268;36047;-73
2022/01/15 04:59:37;;;;;;;17.20;6.60;;;;;;;-1.24;85.13;97496.77;107667;1268;40914;-73
2022/01/15 05:02:10;;;;;;;17.30;9.00;;;;;;;-1.28;85.17;97503.81;107652;1268;47039;-73
2022/01/15 05:04:41;;;;;;;19.50;9.10;;;;;;;-1.35;85.07;97516.00;107752;1268;31553;-74
2022/01/15 05:07:12;;;;;;;14.50;7.70;;;;;;;-1.39;85.22;97508.23;107715;1268;32611;-74
2022/01/15 05:09:43;;;;;;;16.30;7.00;;;;;;;-1.38;85.25;97516.27;107624;1270;35014;-73
2022/01/15 05:12:27;;;;;;;20.30;9.00;;;;;;;-1.37;85.65;97513.60;107677;1271;41080;-74
2022/01/15 05:14:58;;;;;;;19.70;8.10;;;;;;;-1.42;85.48;97516.73;107741;1270;38249;-73
2022/01/15 05:17:29;;;;;;;22.30;8.10;;;;;;;-1.44;85.43;97521.98;107800;1268;37227;-73
2022/01/15 05:19:59;;;;;;;16.90;6.40;;;;;;;-1.42;85.75;97516.43;107699;1268;33768;-74
2022/01/15 05:22:31;;;;;;;16.00;7.60;;;;;;;-1.41;85.63;97524.27;107709;1268;36974;-74
2022/01/15 05:25:03;;;;;;;16.60;7.10;;;;;;;-1.43;85.50;97527.36;107742;1268;36322;-73
2022/01/15 05:27:36;;;;;;;14.70;7.10;;;;;;;-1.40;85.70;97525.86;107683;1270;38140;-73
2022/01/15 05:30:08;;;;;;;13.00;6.60;;;;;;;-1.37;85.81;97520.12;107664;1270;42137;-74
2022/01/15 05:32:39;;;;;;;17.50;6.30;;;;;;;-1.38;85.70;97525.07;107708;1268;35128;-73
2022/01/15 05:35:12;;;;;;;12.90;6.10;;;;;;;-1.43;85.77;97521.16;107726;1270;38636;-73
2022/01/15 05:37:43;;;;;;;16.40;8.00;;;;;;;-1.40;85.73;97521.81;107689;1270;44330;-73
2022/01/15 05:40:16;;;;;;;17.30;5.60;;;;;;;-1.40;85.38;97529.33;107659;1270;35511;-73
2022/01/15 05:42:47;;;;;;;15.00;7.40;;;;;;;-1.43;85.55;97523.19;107694;1268;42114;-73
2022/01/15 05:45:19;;;;;;;19.30;8.30;;;;;;;-1.43;85.42;97525.74;107756;1267;32823;-73
2022/01/15 05:47:50;;;;;;;13.60;6.60;;;;;;;-1.49;85.18;97527.48;107698;1268;36820;-73
2022/01/15 05:50:23;;;;;;;12.10;6.60;;;;;;;-1.56;85.19;97530.98;107656;1268;41919;-73
2022/01/15 05:52:54;;;;;;;13.20;5.50;;;;;;;-1.58;85.52;97527.95;107643;1270;35960;-73
2022/01/15 05:55:25;;;;;;;14.10;5.10;;;;;;;-1.53;85.64;97528.23;107787;1268;38917;-74
2022/01/15 05:57:56;;;;;;;10.20;4.90;;;;;;;-1.52;85.63;97531.05;107772;1268;34686;-74
2022/01/15 06:00:27;;;;;;;11.50;4.90;;;;;;;-1.49;85.99;97533.81;107784;1268;31071;-73
2022/01/15 06:02:59;;;;;;;20.00;7.30;;;;;;;-1.46;85.63;97533.11;107814;1268;52182;-73
2022/01/15 06:05:30;;;;;;;7.60;4.80;;;;;;;-1.42;85.79;97534.21;107705;1268;33024;-74
2022/01/15 06:08:01;;;;;;;13.70;5.10;;;;;;;-1.43;85.53;97537.27;107513;1270;42971;-74
2022/01/15 06:10:33;;;;;;;14.20;6.60;;;;;;;-1.44;85.59;97532.54;107685;1271;36867;-74
2022/01/15 06:13:04;;;;;;;11.20;4.20;;;;;;;-1.41;85.47;97529.30;107630;1270;35028;-74
2022/01/15 06:15:35;;;;;;;13.00;5.70;;;;;;;-1.39;85.51;97530.11;107656;1270;38550;-73
2022/01/15 06:18:06;;;;;;;12.30;4.90;;;;;;;-1.43;85.27;97528.27;107684;1265;36812;-73
2022/01/15 06:20:37;;;;;;;9.60;4.20;;;;;;;-1.42;85.13;97531.64;107699;1268;46546;-73
2022/01/15 06:23:08;;;;;;;11.90;5.10;;;;;;;-1.40;85.23;97527.77;107697;1268;40888;-73
2022/01/15 06:25:39;;;;;;;10.10;4.20;;;;;;;-1.41;85.30;97524.14;107712;1268;29037;-73
2022/01/15 06:28:10;;;;;;;11.50;3.80;;;;;;;-1.45;85.28;97523.52;107659;1268;41562;-74
2022/01/15 06:30:41;;;;;;;18.70;5.10;;;;;;;-1.46;85.03;97530.03;107697;1268;42277;-74
2022/01/15 06:33:12;;;;;;;8.10;4.70;;;;;;;-1.46;85.05;97528.08;107735;1268;33664;-74
2022/01/15 06:35:43;;;;;;;9.90;4.90;;;;;;;-1.45;85.07;97536.61;107714;1268;41028;-73
2022/01/15 06:38:14;;;;;;;11.50;4.00;;;;;;;-1.46;85.14;97539.23;107747;1268;43750;-74
2022/01/15 06:40:45;;;;;;;8.60;3.90;;;;;;;-1.42;84.91;97542.52;107751;1268;35873;-73
2022/01/15 06:43:16;;;;;;;9.60;3.80;;;;;;;-1.39;84.63;97540.22;107692;1268;42050;-73
2022/01/15 06:45:48;;;;;;;8.50;3.30;;;;;;;-1.36;84.56;97544.14;107684;1268;47958;-74
2022/01/15 06:48:18;;;;;;;11.50;3.80;;;;;;;-1.32;84.33;97553.91;107582;1270;31783;-74
2022/01/15 06:50:52;;;;;;;8.90;3.90;;;;;;;-1.31;84.01;97553.89;107741;1268;35477;-73
2022/01/15 06:53:22;;;;;;;11.40;4.80;;;;;;;-1.27;84.03;97562.14;107673;1268;51810;-74
2022/01/15 06:55:54;;;;;;;15.00;4.30;;;;;;;-1.27;84.09;97563.02;107649;1268;41741;-73
2022/01/15 06:58:25;;;;;;;8.60;3.30;;;;;;;-1.27;83.97;97557.79;107675;1270;45582;-73
2022/01/15 07:00:56;;;;;;;9.50;4.50;;;;;;;-1.25;83.93;97556.97;107749;1268;28932;-74
2022/01/15 07:03:27;;;;;;;6.40;2.90;;;;;;;-1.09;83.59;97557.61;107768;1268;37389;-74
2022/01/15 07:05:58;;;;;;;5.20;2.90;;;;;;;-0.87;83.28;97558.58;107786;1270;29859;-73
2022/01/15 07:08:29;;;;;;;5.80;2.90;;;;;;;-0.64;82.95;97558.59;107659;1270;40824;-74
2022/01/15 07:11:00;;;;;;;8.30;3.50;;;;;;;-0.43;82.01;97558.17;107591;1270;40864;-74
2022/01/15 07:13:33;;;;;;;11.80;3.90;;;;;;;-0.25;81.67;97562.08;107595;1270;40432;-74
2022/01/15 07:16:04;;;;;;;8.90;4.00;;;;;;;-0.10;81.14;97572.56;107634;1270;45070;-72
2022/01/15 07:18:38;;;;;;;10.30;3.80;;;;;;;-0.02;80.56;97577.61;107704;1269;34764;-74
2022/01/15 07:21:12;;;;;;;8.30;4.70;;;;;;;0.09;80.12;97578.35;107661;1269;37586;-73
2022/01/15 07:23:43;;;;;;;7.90;4.40;;;;;;;0.27;80.03;97582.94;107737;1270;36272;-73
2022/01/15 07:26:14;;;;;;;7.70;4.00;;;;;;;0.43;79.38;97583.63;107560;1270;42971;-73
2022/01/15 07:28:45;;;;;;;11.20;4.20;;;;;;;0.57;78.95;97584.92;107440;1270;173446;-73
2022/01/15 07:31:18;;;;;;;7.30;2.90;;;;;;;0.74;78.79;97588.21;107565;1270;41536;-73
2022/01/15 07:33:49;;;;;;;7.40;3.80;;;;;;;0.87;78.10;97590.21;107492;1271;32961;-74
2022/01/15 07:36:21;;;;;;;9.50;3.70;;;;;;;1.06;77.81;97592.20;107573;1270;42733;-73
2022/01/15 07:38:52;;;;;;;8.10;3.20;;;;;;;1.18;77.08;97594.02;107467;1271;36396;-73
2022/01/15 07:41:24;;;;;;;14.00;5.20;;;;;;;1.24;76.44;97598.67;107598;1270;38386;-74
2022/01/15 07:43:58;;;;;;;10.10;4.40;;;;;;;1.47;76.43;97601.14;107583;1271;37943;-73
2022/01/15 07:46:29;;;;;;;9.30;4.20;;;;;;;1.65;75.52;97604.36;107668;1270;35854;-73
2022/01/15 07:49:00;;;;;;;9.90;4.20;;;;;;;1.72;74.87;97609.95;107620;1270;39822;-74
2022/01/15 07:51:31;;;;;;;11.10;3.90;;;;;;;1.84;74.16;97606.48;107501;1270;60834;-74
2022/01/15 07:54:03;;;;;;;8.90;4.10;;;;;;;2.02;74.24;97608.71;107481;1271;38343;-74
2022/01/15 07:56:34;;;;;;;7.10;3.80;;;;;;;2.17;73.28;97602.83;107513;1270;38040;-73
2022/01/15 07:59:05;;;;;;;12.30;4.00;;;;;;;2.05;71.99;97601.43;107599;1270;38796;-74
2022/01/15 08:01:36;;;;;;;10.60;4.00;;;;;;;1.94;71.48;97598.48;107686;1270;33534;-74
2022/01/15 08:04:07;;;;;;;8.40;3.60;;;;;;;1.84;71.22;97599.46;107599;1270;35910;-74
2022/01/15 08:06:39;;;;;;;9.80;4.50;;;;;;;1.71;70.99;97599.37;107499;1271;39023;-74
2022/01/15 08:09:10;;;;;;;9.60;4.70;;;;;;;1.70;71.14;97599.35;107451;1271;42088;-74
2022/01/15 08:11:43;;;;;;;12.60;3.60;;;;;;;1.80;70.96;97597.89;107504;1270;39779;-73
2022/01/15 08:14:14;;;;;;;9.10;3.80;;;;;;;1.75;70.50;97600.61;107485;1271;40608;-73
2022/01/15 08:16:45;;;;;;;10.50;4.40;;;;;;;1.69;70.19;97605.39;107624;1270;39292;-74
2022/01/15 08:19:16;;;;;;;6.20;2.70;;;;;;;1.71;70.23;97605.67;107574;1270;42614;-73
2022/01/15 08:21:47;;;;;;;10.70;3.70;;;;;;;1.73;70.22;97612.73;107646;1270;40187;-73
2022/01/15 08:24:18;;;;;;;9.80;3.90;;;;;;;1.78;70.36;97615.86;107661;1270;38766;-74
2022/01/15 08:26:52;;;;;;;14.10;4.50;;;;;;;1.76;69.84;97607.22;107637;1268;74991;-73
2022/01/15 08:29:23;;;;;;;10.30;3.60;;;;;;;1.64;70.13;97614.86;107753;1268;41261;-73
2022/01/15 08:31:53;;;;;;;8.50;3.30;;;;;;;1.65;70.01;97609.23;107680;1268;35568;-73
2022/01/15 08:34:25;;;;;;;5.30;3.10;;;;;;;1.53;70.02;97611.48;107771;1268;35822;-73
2022/01/15 08:36:56;;;;;;;9.60;4.00;;;;;;;1.48;70.30;97609.02;107760;1265;41084;-73
2022/01/15 08:39:27;;;;;;;8.20;3.80;;;;;;;1.48;70.17;97599.57;107798;1268;28607;-73
2022/01/15 08:41:58;;;;;;;4.60;2.90;;;;;;;1.43;69.85;97602.58;107749;1268;34480;-73
2022/01/15 08:44:29;;;;;;;8.70;3.90;;;;;;;1.39;69.16;97595.64;107765;1268;31961;-73
2022/01/15 08:47:02;;;;;;;5.60;2.70;;;;;;;1.44;69.07;97596.27;107761;1268;32476;-74
2022/01/15 08:49:33;;;;;;;6.10;2.20;;;;;;;1.46;68.93;97591.01;107730;1268;35685;-73
2022/01/15 08:52:04;;;;;;;13.20;5.00;;;;;;;1.46;68.92;97592.48;107692;1268;34810;-72
2022/01/15 08:54:36;;;;;;;14.10;4.50;;;;;;;1.44;68.69;97595.55;107751;1268;30051;-73
2022/01/15 08:57:07;;;;;;;14.50;4.50;;;;;;;1.46;68.74;97590.09;107786;1268;31616;-73
2022/01/15 08:59:39;;;;;;;6.00;3.20;;;;;;;1.43;68.59;97586.38;107674;1270;34419;-73
2022/01/15 09:02:11;;;;;;;10.90;3.30;;;;;;;1.40;68.10;97578.64;107561;1270;37115;-73
2022/01/15 09:04:43;;;;;;;11.40;3.20;;;;;;;1.38;67.74;97587.87;107843;1268;35946;-73
2022/01/15 09:07:15;;;;;;;7.50;3.10;;;;;;;1.45;67.63;97587.59;107754;1268;32048;-73
2022/01/15 09:09:46;;;;;;;7.70;2.50;;;;;;;1.47;66.77;97589.27;107759;1268;31599;-72
2022/01/15 09:12:17;;;;;;;6.30;3.20;;;;;;;1.49;67.08;97596.11;107743;1268;33452;-72
2022/01/15 09:14:49;;;;;;;10.40;3.10;;;;;;;1.53;66.47;97593.59;107665;1268;45350;-72
2022/01/15 09:17:23;;;;;;;7.40;2.50;;;;;;;1.54;66.26;97599.46;107719;1268;34272;-72
2022/01/15 09:19:55;;;;;;;12.80;3.30;;;;;;;1.49;66.19;97591.69;107802;1268;34397;-72
2022/01/15 09:22:26;;;;;;;7.90;3.50;;;;;;;1.52;66.03;97590.69;107841;1268;33485;-72
2022/01/15 09:24:57;;;;;;;9.50;3.50;;;;;;;1.57;65.34;97599.80;107706;1270;42044;-72
2022/01/15 09:30:16;;;;;;;7.70;3.20;;;;;;;1.55;64.76;97589.95;107621;1270;35821;-72
2022/01/15 09:32:49;;;;;;;9.00;3.30;;;;;;;1.53;64.48;97586.67;107644;1270;31261;-72
2022/01/15 09:35:22;;;;;;;7.70;2.60;;;;;;;1.57;64.30;97583.65;107691;1270;43756;-72
2022/01/15 09:37:54;;;;;;;8.20;3.80;;;;;;;1.63;63.65;97577.30;107755;1270;37508;-73
2022/01/15 09:40:26;;;;;;;6.00;2.70;;;;;;;1.61;62.27;97580.88;107708;1270;32214;-73
2022/01/15 09:42:58;;;;;;;9.40;2.50;;;;;;;1.64;62.74;97580.64;107688;1270;47090;-73
2022/01/15 09:45:30;;;;;;;5.90;2.70;;;;;;;1.75;63.19;97574.84;107731;1270;41576;-72
2022/01/15 09:48:04;;;;;;;6.40;2.20;;;;;;;1.82;61.35;97577.98;107640;1270;42049;-74
2022/01/15 09:50:37;;;;;;;5.50;2.90;;;;;;;1.89;60.24;97578.13;107586;1270;32749;-72
2022/01/15 09:53:08;;;;;;;6.20;2.60;;;;;;;1.92;60.32;97573.70;107672;1270;38815;-73
2022/01/15 09:55:39;;;;;;;5.70;2.90;;;;;;;1.98;60.33;97573.79;107483;1271;41324;-73
2022/01/15 09:58:10;;;;;;;4.50;2.00;;;;;;;1.90;59.87;97569.52;107533;1271;33257;-73
2022/01/15 10:00:41;;;;;;;8.60;2.70;;;;;;;1.87;60.18;97580.50;107514;1271;32999;-73
2022/01/15 10:03:12;;;;;;;9.50;3.20;;;;;;;1.97;60.83;97575.02;107569;1270;55523;-73
2022/01/15 10:05:44;;;;;;;6.40;2.10;;;;;;;2.10;60.36;97577.46;107542;1270;37245;-73
2022/01/15 10:08:19;;;;;;;6.70;2.30;;;;;;;2.16;59.86;97576.22;107447;1270;44149;-73
2022/01/15 10:10:53;;;;;;;5.40;2.70;;;;;;;2.23;59.63;97580.40;107667;1270;31736;-73
2022/01/15 10:13:26;;;;;;;14.50;6.10;;;;;;;2.22;59.53;97581.32;107438;1271;42822;-73
2022/01/15 10:16:14;;;;;;;6.30;3.10;;;;;;;2.28;60.05;97578.13;107634;1270;42892;-73
2022/01/15 10:18:47;;;;;;;6.50;2.80;;;;;;;2.35;60.24;97576.86;107656;1270;41595;-73
2022/01/15 10:21:22;;;;;;;10.40;3.20;;;;;;;2.37;59.83;97580.99;107616;1270;31764;-73
2022/01/15 10:23:56;;;;;;;7.70;2.70;;;;;;;2.33;59.21;97567.31;107646;1270;31119;-73
2022/01/15 10:26:31;;;;;;;8.40;3.80;;;;;;;2.28;59.19;97577.27;107714;1269;37933;-72
2022/01/15 10:29:05;;;;;;;11.30;4.50;;;;;;;2.29;59.42;97582.42;107733;1270;30826;-72
2022/01/15 10:31:41;;;;;;;8.40;3.70;;;;;;;2.30;59.19;97579.20;107597;1270;44094;-73
2022/01/15 10:37:12;;;;;;;10.20;3.90;;;;;;;2.34;58.67;97583.95;104044;1309;545368;-73
2022/01/15 10:39:56;;;;;;;12.10;4.30;;;;;;;2.40;59.59;97582.50;106604;1284;43575;-73
2022/01/15 10:42:28;;;;;;;11.00;4.00;;;;;;;2.56;59.52;97585.27;106691;1283;31214;-73
2022/01/15 10:45:01;;;;;;;11.20;3.00;;;;;;;2.52;58.19;97584.38;106651;1284;32009;-72
2022/01/15 10:47:39;;;;;;;11.00;3.80;;;;;;;2.48;57.29;97581.00;106585;1284;33647;-72
2022/01/15 10:50:18;;;;;;;12.20;4.40;;;;;;;2.46;57.45;97581.92;106560;1281;128990;-73
2022/01/15 10:52:49;;;;;;;12.50;4.60;;;;;;;2.49;58.03;97586.18;106995;1282;32813;-72
2022/01/15 10:55:27;;;;;;;10.00;3.80;;;;;;;2.57;58.43;97584.38;106903;1282;31773;-72
2022/01/15 10:58:00;;;;;;;7.30;3.00;;;;;;;2.57;57.84;97587.12;106953;1281;46636;-72
2022/01/15 11:00:41;;;;;;;7.40;3.60;;;;;;;2.55;56.97;97590.83;106919;1282;38532;-73
2022/01/15 11:03:16;;;;;;;7.20;3.30;;;;;;;2.66;57.01;97587.30;107352;1274;43235;-73
2022/01/15 11:05:49;;;;;;;10.60;3.70;;;;;;;2.61;55.56;97586.46;107373;1274;33115;-73
2022/01/15 11:08:22;;;;;;;7.00;2.90;;;;;;;2.55;53.82;97580.16;107260;1274;41368;-73
2022/01/15 11:10:55;;;;;;;8.00;2.90;;;;;;;2.55;54.76;97580.91;107261;1275;43770;-73
2022/01/15 11:13:28;;;;;;;10.60;3.40;;;;;;;2.56;55.53;97587.00;107314;1274;37295;-73
2022/01/15 11:16:04;;;;;;;11.50;4.80;;;;;;;2.59;56.27;97591.19;107371;1274;31436;-73
2022/01/15 11:18:37;;;;;;;7.80;3.70;;;;;;;2.68;56.39;97591.38;107299;1274;49660;-73
2022/01/15 11:21:10;;;;;;;6.20;3.10;;;;;;;2.65;55.95;97587.49;107296;1275;38144;-73
2022/01/15 11:23:43;;;;;;;11.00;3.90;;;;;;;2.57;55.65;97578.30;107300;1274;31190;-73
2022/01/15 11:26:17;;;;;;;10.80;5.10;;;;;;;2.49;55.89;97580.30;107547;1271;41166;-73
2022/01/15 11:28:48;;;;;;;6.60;3.60;;;;;;;2.45;56.63;97584.11;107471;1271;38149;-73
2022/01/15 11:31:24;;;;;;;9.10;3.20;;;;;;;2.54;56.96;97575.96;107606;1270;34460;-73
2022/01/15 11:33:59;;;;;;;8.90;4.20;;;;;;;2.61;56.13;97568.95;107612;1271;44808;-73
2022/01/15 11:36:35;;;;;;;9.20;3.60;;;;;;;2.61;56.54;97570.64;107620;1271;33338;-73
2022/01/15 11:39:07;;;;;;;10.50;4.00;;;;;;;2.58;56.22;97576.61;107565;1271;40847;-73
2022/01/15 11:41:42;;;;;;;12.30;4.10;;;;;;;2.62;56.60;97577.08;107596;1271;30581;-73
2022/01/15 11:44:18;;;;;;;7.90;4.20;;;;;;;2.61;56.03;97567.54;107564;1270;40366;-73
2022/01/15 11:46:52;;;;;;;10.50;3.60;;;;;;;2.62;56.27;97565.23;107549;1270;35033;-72
2022/01/15 11:49:35;;;;;;;9.70;4.40;;;;;;;2.65;56.60;97562.61;107457;1272;28150;-72
2022/01/15 11:52:33;;;;;;;12.00;5.00;;;;;;;2.71;56.81;97561.64;107593;1271;38186;-72
2022/01/15 11:55:20;;;;;;;9.90;4.20;;;;;;;2.79;57.31;97553.03;107586;1271;34678;-73
2022/01/15 11:57:58;;;;;;;11.10;4.20;;;;;;;2.79;57.25;97554.45;107550;1270;35298;-73
2022/01/15 12:00:32;;;;;;;8.30;4.00;;;;;;;2.82;57.22;97553.41;107644;1271;30768;-73
2022/01/15 12:03:15;;;;;;;12.50;4.10;;;;;;;2.82;57.31;97552.11;107599;1271;31731;-73
2022/01/15 12:06:00;;;;;;;8.70;4.50;;;;;;;2.75;57.43;97554.63;107613;1271;38750;-73
2022/01/15 12:08:37;;;;;;;15.50;5.20;;;;;;;2.73;57.49;97558.89;107572;1271;28987;-73
2022/01/15 12:11:09;;;;;;;17.00;5.70;;;;;;;2.71;57.58;97561.16;107557;1271;40995;-73
2022/01/15 12:13:51;;;;;;;11.50;5.40;;;;;;;2.74;57.49;97563.70;107581;1271;39631;-72